Accueil
METAR-TAF:

METAR-TAF

Aéroports :

Destin-Fort Walton Beach Airport

Destin, Floride, États-Unis

latitude: 30-23-36N, longitude: 086-28-03W, altitude: 6 m

Observation

Le bulletin a été fait il y a 15 minutes, à 18:00 UTC
Vent 6 kt de sud/sud-est
Température 24°C
Humidité 74%
Pression 1019 hPa
Visibilité: 16.1 km
Nuages épars à une hauteur de 2500 ft

METAR: KDTS 071800Z 16006KT 10SM SCT025 24/19 A3008 RMK AO2 T02440194

Heure: 13:15 (18:15 UTC)


TAF: absent

Observations et prévisions météorologiques de plus de 4000 aéroports (messages METAR et TAF).

Les stations disponibles sont représentées par des disques jaunes et rouges sur la carte.

Passer la souris dessus pour voir le nom de la station.

Cliquer dessus pour voir les observations et prévisions météorologiques.

Pour changer de carte: cliquez sur les boutons verts avec une croix noire pour zoomer, sur le bouton vert avec un tiret pour effectuer un zoom arrière, ou sur les flèches vertes pour les cartes adjacentes.


METAR-TAF: